createdAt,value
2023-04-02T00:01:00.748Z,81.10
2023-04-02T00:03:42.229Z,81.40
2023-04-02T00:06:32.763Z,81.50
2023-04-02T00:09:22.336Z,81.50
2023-04-02T00:11:55.612Z,81.60
2023-04-02T00:14:34.971Z,81.30
2023-04-02T00:17:05.578Z,81.30
2023-04-02T00:20:00.230Z,81.50
2023-04-02T00:22:33.655Z,81.90
2023-04-02T00:25:12.319Z,81.60
2023-04-02T00:27:40.177Z,81.70
2023-04-02T00:30:08.747Z,81.70
2023-04-02T00:32:37.064Z,81.70
2023-04-02T00:35:26.051Z,81.60
2023-04-02T00:37:54.569Z,81.60
2023-04-02T00:40:31.756Z,81.90
2023-04-02T00:43:04.294Z,82.00
2023-04-02T00:45:36.687Z,82.10
2023-04-02T00:48:22.201Z,81.90
2023-04-02T00:50:52.875Z,82.40
2023-04-02T00:53:28.499Z,82.20
2023-04-02T00:55:58.782Z,82.30
2023-04-02T00:58:36.697Z,82.40
2023-04-02T01:01:04.733Z,82.70
2023-04-02T01:03:36.620Z,82.10
2023-04-02T01:06:11.340Z,82.10
2023-04-02T01:08:58.861Z,82.50
2023-04-02T01:12:01.962Z,82.30
2023-04-02T01:15:07.545Z,81.70
2023-04-02T01:18:09.612Z,81.80
2023-04-02T01:21:10.350Z,81.80
2023-04-02T01:24:02.742Z,82.10
2023-04-02T01:27:02.199Z,82.30
2023-04-02T01:29:46.676Z,82.80
2023-04-02T01:32:18.705Z,82.60
2023-04-02T01:34:49.325Z,82.70
2023-04-02T01:37:49.923Z,82.90
2023-04-02T01:40:39.885Z,83.00
2023-04-02T01:43:33.681Z,83.20
2023-04-02T01:46:29.589Z,83.10
2023-04-02T01:49:00.424Z,83.60
2023-04-02T01:51:36.101Z,83.70
2023-04-02T01:54:07.610Z,84.00
2023-04-02T01:56:35.661Z,84.00
2023-04-02T01:59:05.893Z,84.10
2023-04-02T02:01:48.390Z,84.20
2023-04-02T02:04:17.542Z,84.30
2023-04-02T02:06:47.111Z,84.30
2023-04-02T02:09:27.150Z,84.50
2023-04-02T02:11:58.719Z,84.40
2023-04-02T02:14:29.227Z,85.00
2023-04-02T02:17:02.363Z,85.10
2023-04-02T02:19:42.515Z,85.10
2023-04-02T02:22:21.785Z,85.10
2023-04-02T02:24:49.554Z,85.10
2023-04-02T02:27:23.251Z,84.90
2023-04-02T02:30:38.263Z,84.90
2023-04-02T02:33:30.966Z,85.00
2023-04-02T02:36:36.796Z,85.00
2023-04-02T02:39:31.262Z,84.60
2023-04-02T02:42:31.795Z,84.30
2023-04-02T02:45:03.048Z,84.30
2023-04-02T02:47:34.916Z,83.90
2023-04-02T02:50:10.228Z,83.80
2023-04-02T02:52:39.873Z,83.60
2023-04-02T02:55:17.626Z,84.10
2023-04-02T02:58:07.553Z,84.20
2023-04-02T03:00:42.539Z,84.10
2023-04-02T03:03:23.373Z,84.00
2023-04-02T03:06:02.647Z,84.20
2023-04-02T03:08:40.084Z,84.50
2023-04-02T03:11:33.261Z,84.30
2023-04-02T03:14:48.827Z,84.00
2023-04-02T03:17:32.315Z,84.00
2023-04-02T03:20:52.100Z,84.40
2023-04-02T03:23:32.523Z,84.60
2023-04-02T03:26:20.873Z,84.70
2023-04-02T03:29:22.736Z,84.70
2023-04-02T03:32:22.924Z,84.50
2023-04-02T03:35:01.489Z,84.80
2023-04-02T03:37:46.211Z,84.50
2023-04-02T03:40:34.369Z,84.60
2023-04-02T03:43:20.528Z,84.40
2023-04-02T03:45:56.989Z,84.40
2023-04-02T03:48:43.475Z,84.70
2023-04-02T03:51:49.099Z,85.50
2023-04-02T03:54:17.318Z,86.10
2023-04-02T03:56:47.466Z,86.50
2023-04-02T03:59:37.930Z,87.10
2023-04-02T04:02:38.495Z,88.80
2023-04-02T04:05:18.768Z,90.20
2023-04-02T04:07:46.859Z,90.60
2023-04-02T04:10:22.185Z,90.90
2023-04-02T04:12:52.914Z,91.40
2023-04-02T04:15:22.134Z,91.50
2023-04-02T04:18:10.485Z,91.70
2023-04-02T04:21:00.728Z,92.00
2023-04-02T04:23:40.923Z,91.90
2023-04-02T04:26:30.984Z,91.60
2023-04-02T04:29:45.531Z,91.30
2023-04-02T04:32:31.739Z,91.40
2023-04-02T04:35:37.518Z,91.10
2023-04-02T04:38:16.607Z,91.00
2023-04-02T04:40:56.801Z,91.10
2023-04-02T04:43:51.045Z,91.00
2023-04-02T04:47:06.040Z,91.60
2023-04-02T04:49:46.508Z,91.70
2023-04-02T04:52:32.794Z,91.70
2023-04-02T04:55:01.278Z,91.80
2023-04-02T04:57:39.814Z,91.80
2023-04-02T05:00:25.645Z,91.80
2023-04-02T05:03:22.191Z,91.70
2023-04-02T05:05:50.743Z,91.90
2023-04-02T05:08:30.465Z,91.90
2023-04-02T05:11:04.730Z,91.70
2023-04-02T05:13:54.256Z,91.80
2023-04-02T05:16:41.421Z,91.10
2023-04-02T05:19:19.500Z,91.50
2023-04-02T05:21:59.819Z,91.20
2023-04-02T05:24:57.226Z,91.00
2023-04-02T05:27:54.744Z,90.80
2023-04-02T05:30:25.235Z,90.80
2023-04-02T05:33:04.910Z,91.00
2023-04-02T05:35:36.711Z,90.80
2023-04-02T05:38:06.649Z,90.80
2023-04-02T05:40:44.477Z,90.80
2023-04-02T05:43:18.836Z,90.70
2023-04-02T05:45:55.735Z,90.90
2023-04-02T05:48:35.719Z,91.10
2023-04-02T05:51:09.501Z,90.90
2023-04-02T05:53:41.598Z,91.00
2023-04-02T05:56:28.055Z,91.10
2023-04-02T05:59:27.044Z,91.10
2023-04-02T06:02:11.467Z,91.50
2023-04-02T06:04:57.665Z,91.60
2023-04-02T06:07:46.375Z,91.40
2023-04-02T06:10:25.724Z,91.60
2023-04-02T06:13:08.424Z,91.60
2023-04-02T06:15:40.724Z,91.20
2023-04-02T06:18:17.561Z,91.20
2023-04-02T06:20:46.342Z,90.70
2023-04-02T06:23:53.202Z,90.10
2023-04-02T06:26:33.351Z,89.80
2023-04-02T06:29:18.113Z,89.40
2023-04-02T06:32:00.730Z,89.80
2023-04-02T06:34:31.159Z,89.10
2023-04-02T06:37:21.169Z,89.00
2023-04-02T06:39:51.045Z,89.30
2023-04-02T06:42:34.342Z,89.70
2023-04-02T06:45:29.323Z,89.90
2023-04-02T06:48:26.341Z,90.20
2023-04-02T06:51:11.463Z,90.80
2023-04-02T06:53:51.538Z,90.70
2023-04-02T06:56:51.382Z,91.20
2023-04-02T06:59:26.202Z,91.60
2023-04-02T07:02:32.672Z,92.60
2023-04-02T07:05:09.441Z,93.30
2023-04-02T07:07:40.589Z,95.10
2023-04-02T07:10:12.782Z,95.80
2023-04-02T07:12:40.641Z,96.50
2023-04-02T07:15:14.725Z,95.80
2023-04-02T07:17:43.791Z,95.90
2023-04-02T07:20:33.756Z,95.00
2023-04-02T07:23:06.203Z,95.40
2023-04-02T07:25:33.928Z,96.00
2023-04-02T07:28:01.697Z,96.90
2023-04-02T07:30:29.167Z,96.60
2023-04-02T07:32:56.687Z,96.30
2023-04-02T07:35:24.233Z,96.30
2023-04-02T07:37:52.806Z,95.30
2023-04-02T07:40:22.869Z,96.30
2023-04-02T07:42:50.632Z,95.70
2023-04-02T07:45:18.188Z,95.50
2023-04-02T07:47:45.729Z,94.80
2023-04-02T07:50:13.450Z,94.90
2023-04-02T07:52:42.470Z,94.80
2023-04-02T07:55:15.476Z,94.80
2023-04-02T07:57:58.587Z,93.70
2023-04-02T08:00:29.048Z,92.70
2023-04-02T08:02:56.716Z,93.20
2023-04-02T08:05:24.337Z,92.00
2023-04-02T08:07:56.672Z,91.90
2023-04-02T08:10:24.721Z,90.10
2023-04-02T08:12:52.341Z,90.10
2023-04-02T08:15:19.877Z,90.30
2023-04-02T08:17:47.879Z,90.70
2023-04-02T08:20:19.022Z,90.90
2023-04-02T08:22:47.347Z,90.10
2023-04-02T08:25:15.461Z,90.70
2023-04-02T08:27:43.289Z,90.00
2023-04-02T08:30:13.947Z,88.80
2023-04-02T08:32:41.554Z,88.10
2023-04-02T08:35:12.183Z,88.80
2023-04-02T08:37:39.761Z,87.80
2023-04-02T08:40:15.983Z,86.70
2023-04-02T08:43:03.609Z,87.30
2023-04-02T08:45:50.513Z,87.20
2023-04-02T08:48:18.539Z,87.40
2023-04-02T08:50:46.312Z,85.40
2023-04-02T08:53:25.629Z,84.80
2023-04-02T08:56:33.527Z,85.70
2023-04-02T08:59:19.799Z,84.60
2023-04-02T09:02:03.686Z,83.80
2023-04-02T09:04:33.274Z,83.40
2023-04-02T09:07:00.930Z,82.50
2023-04-02T09:09:28.694Z,83.10
2023-04-02T09:12:05.317Z,80.40
2023-04-02T09:15:22.558Z,79.80
2023-04-02T09:18:00.447Z,79.70
2023-04-02T09:20:29.300Z,81.50
2023-04-02T09:22:57.687Z,79.60
2023-04-02T09:25:28.425Z,80.10
2023-04-02T09:28:02.681Z,80.70
2023-04-02T09:30:51.976Z,80.20
2023-04-02T09:33:19.498Z,80.80
2023-04-02T09:35:49.988Z,80.20
2023-04-02T09:38:31.626Z,78.60
2023-04-02T09:41:03.802Z,79.20
2023-04-02T09:43:37.902Z,79.30
2023-04-02T09:46:25.798Z,79.30
2023-04-02T09:49:03.365Z,78.20
2023-04-02T09:51:34.659Z,78.30
2023-04-02T09:54:13.473Z,78.90
2023-04-02T09:56:57.993Z,78.50
2023-04-02T09:59:25.955Z,77.40
2023-04-02T10:01:53.463Z,77.60
2023-04-02T10:04:45.015Z,77.40
2023-04-02T10:07:42.821Z,77.90
2023-04-02T10:10:31.279Z,77.40
2023-04-02T10:13:03.198Z,77.40
2023-04-02T10:15:43.530Z,76.20
2023-04-02T10:18:53.788Z,75.50
2023-04-02T10:21:37.484Z,75.70
2023-04-02T10:24:16.841Z,72.70
2023-04-02T10:27:02.549Z,72.50
2023-04-02T10:30:19.078Z,73.20
2023-04-02T10:32:56.519Z,72.10
2023-04-02T10:35:45.243Z,73.10
2023-04-02T10:38:43.108Z,72.20
2023-04-02T10:41:33.444Z,71.70
2023-04-02T10:44:39.094Z,72.30
2023-04-02T10:47:34.112Z,71.00
2023-04-02T10:50:24.290Z,71.60
2023-04-02T10:53:17.984Z,71.50
2023-04-02T10:55:58.202Z,70.90
2023-04-02T10:58:29.941Z,70.90
2023-04-02T11:01:07.890Z,70.80
2023-04-02T11:03:53.843Z,71.80
2023-04-02T11:06:28.677Z,71.10
2023-04-02T11:09:04.851Z,71.30
2023-04-02T11:11:50.800Z,70.70
2023-04-02T11:14:24.243Z,70.30
2023-04-02T11:16:54.820Z,70.50
2023-04-02T11:19:29.524Z,67.10
2023-04-02T11:22:06.634Z,69.70
2023-04-02T11:24:47.725Z,69.70
2023-04-02T11:27:24.467Z,68.60
2023-04-02T11:30:27.472Z,66.50
2023-04-02T11:33:39.824Z,67.00
2023-04-02T11:36:50.272Z,65.20
2023-04-02T11:39:59.578Z,64.90
2023-04-02T11:42:36.065Z,65.10
2023-04-02T11:45:21.993Z,64.10
2023-04-02T11:48:02.184Z,64.80
2023-04-02T11:50:31.900Z,65.20
2023-04-02T11:53:10.257Z,66.50
2023-04-02T11:55:47.383Z,66.20
2023-04-02T11:58:42.168Z,66.00
2023-04-02T12:01:50.231Z,66.30
2023-04-02T12:05:16.650Z,64.20
2023-04-02T12:08:11.882Z,63.40
2023-04-02T12:11:01.248Z,65.30
2023-04-02T12:13:40.722Z,64.30
2023-04-02T12:16:13.413Z,65.20
2023-04-02T12:18:53.707Z,67.20
2023-04-02T12:21:26.988Z,67.90
2023-04-02T12:23:59.128Z,68.50
2023-04-02T12:26:37.166Z,67.80
2023-04-02T12:29:26.698Z,67.60
2023-04-02T12:31:57.225Z,67.70
2023-04-02T12:34:29.572Z,68.30
2023-04-02T12:37:03.943Z,67.50
2023-04-02T12:39:34.102Z,68.00
2023-04-02T12:42:02.206Z,68.00
2023-04-02T12:44:31.208Z,67.20
2023-04-02T12:46:59.423Z,66.90
2023-04-02T12:49:43.083Z,67.80
2023-04-02T12:52:17.653Z,66.50
2023-04-02T12:55:02.925Z,67.60
2023-04-02T12:57:40.371Z,68.30
2023-04-02T13:00:20.891Z,69.50
2023-04-02T13:03:04.426Z,70.00
2023-04-02T13:05:54.802Z,71.20
2023-04-02T13:08:37.195Z,72.60
2023-04-02T13:11:06.189Z,72.40
2023-04-02T13:13:40.519Z,72.60
2023-04-02T13:16:19.700Z,73.50
2023-04-02T13:18:49.701Z,74.30
2023-04-02T13:21:17.546Z,75.10
2023-04-02T13:23:46.087Z,75.30
2023-04-02T13:26:21.937Z,75.30
2023-04-02T13:29:04.693Z,75.20
2023-04-02T13:31:33.298Z,75.10
2023-04-02T13:34:01.405Z,75.50
2023-04-02T13:36:29.288Z,76.00
2023-04-02T13:38:57.461Z,76.40
2023-04-02T13:41:40.289Z,76.60
2023-04-02T13:44:17.950Z,76.50
2023-04-02T13:46:45.573Z,76.30
2023-04-02T13:49:13.066Z,76.40
2023-04-02T13:52:10.501Z,76.40
2023-04-02T13:54:48.801Z,76.50
2023-04-02T13:57:16.524Z,76.80
2023-04-02T13:59:44.031Z,76.50
2023-04-02T14:02:20.358Z,77.00
2023-04-02T14:05:02.480Z,77.50
2023-04-02T14:07:51.550Z,77.30
2023-04-02T14:10:51.054Z,77.40
2023-04-02T14:14:02.683Z,77.60
2023-04-02T14:16:52.229Z,78.60
2023-04-02T14:19:31.649Z,79.50
2023-04-02T14:22:23.376Z,79.70
2023-04-02T14:25:26.032Z,79.50
2023-04-02T14:28:20.454Z,78.40
2023-04-02T14:31:14.895Z,78.20
2023-04-02T14:34:00.753Z,78.60
2023-04-02T14:36:51.038Z,79.00
2023-04-02T14:40:10.281Z,80.40
2023-04-02T14:43:00.324Z,79.70
2023-04-02T14:46:05.815Z,78.80
2023-04-02T14:48:54.283Z,78.90
2023-04-02T14:51:52.798Z,78.90
2023-04-02T14:54:26.011Z,79.00
2023-04-02T14:57:23.479Z,78.80
2023-04-02T15:00:10.687Z,78.50
2023-04-02T15:03:11.132Z,78.70
2023-04-02T15:05:46.236Z,78.70
2023-04-02T15:08:35.073Z,80.10
2023-04-02T15:11:31.210Z,80.60
2023-04-02T15:14:13.029Z,81.40
2023-04-02T15:16:40.877Z,82.00
2023-04-02T15:19:16.419Z,81.50
2023-04-02T15:22:14.858Z,81.60
2023-04-02T15:24:57.262Z,81.40
2023-04-02T15:27:52.523Z,81.20
2023-04-02T15:30:37.043Z,81.00
2023-04-02T15:33:27.321Z,80.40
2023-04-02T15:36:17.296Z,80.90
2023-04-02T15:38:53.214Z,80.70
2023-04-02T15:41:27.407Z,80.10
2023-04-02T15:44:13.557Z,79.00
2023-04-02T15:47:10.230Z,78.60
2023-04-02T15:50:17.121Z,78.70
2023-04-02T15:53:09.914Z,78.40
2023-04-02T15:55:49.279Z,78.10
2023-04-02T15:58:53.300Z,78.50
2023-04-02T16:01:50.073Z,78.40
2023-04-02T16:04:42.932Z,78.20
2023-04-02T16:08:00.622Z,77.80
2023-04-02T16:10:42.331Z,77.10
2023-04-02T16:13:36.814Z,77.10
2023-04-02T16:16:33.861Z,76.50
2023-04-02T16:19:17.334Z,76.50
2023-04-02T16:21:56.578Z,76.30
2023-04-02T16:24:24.334Z,76.20
2023-04-02T16:26:57.281Z,76.20
2023-04-02T16:29:55.028Z,76.20
2023-04-02T16:32:28.172Z,74.90
2023-04-02T16:38:28.926Z,75.10
2023-04-02T16:41:27.580Z,75.40
2023-04-02T16:44:21.703Z,75.60
2023-04-02T16:47:40.189Z,75.70
2023-04-02T16:50:34.490Z,75.30
2023-04-02T16:53:47.763Z,75.10
2023-04-02T16:57:05.144Z,74.90
2023-04-02T16:59:39.415Z,75.20
2023-04-02T17:02:24.264Z,76.00
2023-04-02T17:05:31.046Z,75.40
2023-04-02T17:08:30.088Z,74.70
2023-04-02T17:11:06.956Z,74.80
2023-04-02T17:14:05.797Z,75.20
2023-04-02T17:16:46.188Z,75.10
2023-04-02T17:19:17.116Z,74.70
2023-04-02T17:21:52.527Z,75.00
2023-04-02T17:24:33.863Z,73.70
2023-04-02T17:27:20.230Z,73.90
2023-04-02T17:29:52.889Z,74.90
2023-04-02T17:32:36.870Z,74.60
2023-04-02T17:35:59.418Z,74.10
2023-04-02T17:38:48.447Z,73.70
2023-04-02T17:41:31.767Z,73.50
2023-04-02T17:44:45.838Z,73.50
2023-04-02T17:47:23.077Z,73.60
2023-04-02T17:50:17.549Z,73.50
2023-04-02T17:52:53.112Z,73.40
2023-04-02T17:55:41.949Z,72.60
2023-04-02T17:58:37.276Z,72.90
2023-04-02T18:01:28.075Z,72.00
2023-04-02T18:04:36.318Z,72.40
2023-04-02T18:07:40.193Z,72.30
2023-04-02T18:10:38.673Z,71.40
2023-04-02T18:13:30.769Z,72.20
2023-04-02T18:16:37.817Z,72.60
2023-04-02T18:19:29.380Z,72.20
2023-04-02T18:22:40.929Z,71.60
2023-04-02T18:26:04.118Z,71.90
2023-04-02T18:28:41.527Z,71.30
2023-04-02T18:31:33.308Z,71.30
2023-04-02T18:34:17.678Z,71.00
2023-04-02T18:37:19.513Z,71.30
2023-04-02T18:40:15.582Z,70.80
2023-04-02T18:43:32.858Z,71.20
2023-04-02T18:46:29.166Z,71.30
2023-04-02T18:49:03.619Z,71.00
2023-04-02T18:51:37.301Z,70.70
2023-04-02T18:54:22.584Z,69.90
2023-04-02T18:56:50.097Z,69.40
2023-04-02T18:59:57.358Z,70.30
2023-04-02T19:02:51.992Z,68.30
2023-04-02T19:05:35.545Z,69.00
2023-04-02T19:08:16.234Z,69.80
2023-04-02T19:10:47.926Z,69.50
2023-04-02T19:13:18.833Z,69.50
2023-04-02T19:15:58.390Z,68.70
2023-04-02T19:18:49.108Z,68.20
2023-04-02T19:21:46.027Z,68.00
2023-04-02T19:24:58.523Z,67.20
2023-04-02T19:27:53.759Z,67.00
2023-04-02T19:30:53.472Z,66.70
2023-04-02T19:33:47.949Z,65.60
2023-04-02T19:36:41.495Z,66.70
2023-04-02T19:39:35.504Z,67.00
2023-04-02T19:42:31.119Z,65.90
2023-04-02T19:44:58.973Z,65.70
2023-04-02T19:47:26.742Z,65.70
2023-04-02T19:49:55.687Z,66.30
2023-04-02T19:52:23.178Z,66.80
2023-04-02T19:54:50.686Z,66.70
2023-04-02T19:57:18.303Z,65.50
2023-04-02T19:59:45.899Z,65.50
2023-04-02T20:02:13.477Z,66.20
2023-04-02T20:04:40.988Z,66.00
2023-04-02T20:07:08.511Z,65.30
2023-04-02T20:09:35.967Z,63.70
2023-04-02T20:12:04.059Z,64.00
2023-04-02T20:14:31.538Z,64.10
2023-04-02T20:16:59.110Z,63.70
2023-04-02T20:19:26.687Z,63.20
2023-04-02T20:21:54.174Z,63.70
2023-04-02T20:24:21.674Z,63.60
2023-04-02T20:26:49.393Z,63.30
2023-04-02T20:29:16.984Z,63.40
2023-04-02T20:31:44.492Z,63.50
2023-04-02T20:34:12.138Z,63.60
2023-04-02T20:36:39.936Z,64.10
2023-04-02T20:39:09.062Z,63.70
2023-04-02T20:41:36.568Z,63.60
2023-04-02T20:44:04.063Z,63.70
2023-04-02T20:46:31.606Z,63.40
2023-04-02T20:48:59.089Z,63.00
2023-04-02T20:51:26.576Z,62.30
2023-04-02T20:53:54.369Z,62.30
2023-04-02T20:56:26.393Z,63.00
2023-04-02T20:58:53.878Z,62.90
2023-04-02T21:01:29.199Z,62.70
2023-04-02T21:03:59.434Z,62.70
2023-04-02T21:06:33.520Z,63.20
2023-04-02T21:09:05.365Z,63.00
2023-04-02T21:11:36.431Z,62.90
2023-04-02T21:14:04.287Z,62.50
2023-04-02T21:16:32.425Z,62.20
2023-04-02T21:19:04.533Z,62.10
2023-04-02T21:21:32.740Z,62.10
2023-04-02T21:24:03.696Z,61.50
2023-04-02T21:26:34.925Z,61.40
2023-04-02T21:29:04.065Z,61.20
2023-04-02T21:31:39.390Z,60.60
2023-04-02T21:34:09.310Z,60.60
2023-04-02T21:36:41.749Z,60.10
2023-04-02T21:39:15.915Z,60.70
2023-04-02T21:41:46.616Z,61.20
2023-04-02T21:44:16.866Z,60.70
2023-04-02T21:46:44.863Z,60.70
2023-04-02T21:49:16.175Z,59.20
2023-04-02T21:51:46.527Z,59.80
2023-04-02T21:54:14.066Z,60.00
2023-04-02T21:56:46.386Z,60.30
2023-04-02T21:59:16.860Z,59.60
2023-04-02T22:01:50.519Z,59.60
2023-04-02T22:04:25.013Z,60.50
2023-04-02T22:06:53.575Z,60.50
2023-04-02T22:09:24.625Z,59.50
2023-04-02T22:11:58.608Z,59.30
2023-04-02T22:14:27.327Z,59.50
2023-04-02T22:16:55.160Z,59.50
2023-04-02T22:19:22.772Z,61.00
2023-04-02T22:21:50.506Z,61.00
2023-04-02T22:24:21.840Z,60.40
2023-04-02T22:26:49.428Z,59.70
2023-04-02T22:29:17.125Z,58.90
2023-04-02T22:31:45.458Z,59.40
2023-04-02T22:34:13.043Z,59.60
2023-04-02T22:36:41.168Z,60.40
2023-04-02T22:39:11.949Z,60.80
2023-04-02T22:41:39.528Z,60.50
2023-04-02T22:44:07.248Z,60.10
2023-04-02T22:46:35.061Z,60.30
2023-04-02T22:49:03.148Z,60.60
2023-04-02T22:51:30.967Z,60.40
2023-04-02T22:53:58.462Z,60.70
2023-04-02T22:56:31.625Z,60.80
2023-04-02T22:58:59.383Z,61.00
2023-04-02T23:01:33.000Z,61.20
2023-04-02T23:04:00.859Z,61.50
2023-04-02T23:06:28.864Z,61.80
2023-04-02T23:08:56.780Z,61.90
2023-04-02T23:11:27.644Z,62.00
2023-04-02T23:13:57.427Z,62.00
2023-04-02T23:16:27.823Z,61.60
2023-04-02T23:18:56.546Z,62.00
2023-04-02T23:21:25.068Z,61.90
2023-04-02T23:23:53.038Z,62.80
2023-04-02T23:26:31.349Z,62.50
2023-04-02T23:29:00.365Z,62.00
2023-04-02T23:31:28.284Z,62.40
2023-04-02T23:33:55.821Z,62.20
2023-04-02T23:36:24.912Z,62.00
2023-04-02T23:38:55.318Z,62.00
2023-04-02T23:41:26.685Z,62.10
2023-04-02T23:43:56.114Z,62.10
2023-04-02T23:46:24.777Z,62.10
2023-04-02T23:48:52.985Z,62.10
2023-04-02T23:51:21.588Z,61.70
2023-04-02T23:53:50.586Z,61.80
2023-04-02T23:56:19.142Z,62.20
2023-04-02T23:58:46.669Z,62.50
